Time;durP1;ratioP1;P1;durP2;ratioP2;P2;SDS_P1;SDS_P2;PMS_P1;PMS_P2;Temp;Humidity;BMP_temperature;BMP_pressure;BME280_temperature;BME280_humidity;BME280_pressure;Samples;Min_cycle;Max_cycle;Signal;HPM_P1;HPM_P2
2022/06/22 00:00:19;;;;;;;6.32;3.70;;;12.30;85.70;;;;;;5023628;28;20036;-74
2022/06/22 00:02:47;;;;;;;7.13;4.10;;;12.30;85.70;;;;;;5029088;28;20444;-74
2022/06/22 00:05:27;;;;;;;4.63;3.58;;;12.30;85.40;;;;;;5015093;28;20066;-75
2022/06/22 00:07:57;;;;;;;7.80;4.28;;;12.30;85.50;;;;;;5015986;28;20037;-74
2022/06/22 00:10:28;;;;;;;7.07;3.83;;;12.30;85.60;;;;;;5049131;28;20253;-75
2022/06/22 00:12:55;;;;;;;;;;;12.30;86.00;;;;;;5023690;28;20468;-74
2022/06/22 00:15:35;;;;;;;8.93;4.65;;;12.30;86.70;;;;;;5031202;28;19909;-74
2022/06/22 00:18:17;;;;;;;8.43;4.95;;;12.30;87.20;;;;;;5027007;28;20056;-75
2022/06/22 00:20:49;;;;;;;9.30;4.63;;;12.30;87.30;;;;;;5021720;28;20036;-75
2022/06/22 00:23:15;;;;;;;7.72;4.28;;;12.30;86.90;;;;;;5021522;28;20133;-75
2022/06/22 00:25:41;;;;;;;7.95;4.05;;;12.30;86.40;;;;;;5022405;28;20129;-76
2022/06/22 00:28:28;;;;;;;9.82;4.20;;;12.20;86.00;;;;;;5019409;28;20129;-74
2022/06/22 00:31:01;;;;;;;9.35;4.03;;;12.10;86.10;;;;;;5029887;28;20029;-75
2022/06/22 00:33:26;;;;;;;9.30;4.07;;;12.10;86.10;;;;;;5031369;28;20040;-76
2022/06/22 00:36:19;;;;;;;6.47;4.20;;;12.20;86.50;;;;;;5028628;28;20033;-76
2022/06/22 00:38:44;;;;;;;10.25;3.95;;;12.10;86.80;;;;;;5027402;28;20033;-74
2022/06/22 00:41:23;;;;;;;9.00;4.25;;;12.10;87.00;;;;;;5023500;28;20045;-74
2022/06/22 00:43:54;;;;;;;6.75;4.13;;;12.00;86.60;;;;;;5022244;28;20049;-74
2022/06/22 00:46:23;;;;;;;7.47;3.75;;;12.00;86.80;;;;;;5025831;28;20473;-75
2022/06/22 00:48:52;;;;;;;7.15;3.95;;;12.00;87.20;;;;;;5015309;28;20037;-75
2022/06/22 00:51:21;;;;;;;10.15;4.20;;;11.80;86.50;;;;;;5017328;28;20041;-75
2022/06/22 00:53:52;;;;;;;8.50;3.90;;;11.80;86.30;;;;;;5020154;28;20455;-74
2022/06/22 00:56:39;;;;;;;9.13;4.30;;;11.70;87.00;;;;;;5022551;28;20385;-74
2022/06/22 00:59:39;;;;;;;7.07;3.97;;;11.50;87.20;;;;;;5031017;28;20051;-75
2022/06/22 01:02:29;;;;;;;6.85;4.45;;;11.50;87.50;;;;;;5023182;28;20029;-77
2022/06/22 01:05:20;;;;;;;9.23;4.53;;;11.50;87.50;;;;;;5020966;28;20037;-74
2022/06/22 01:08:19;;;;;;;9.70;4.73;;;11.40;87.50;;;;;;5027500;28;20046;-74
2022/06/22 01:12:16;;;;;;;7.93;4.80;;;11.30;88.60;;;;;;5029893;28;20407;-74
2022/06/22 01:14:02;;;;;;;7.07;4.63;;;11.30;89.50;;;;;;5017034;28;20026;-75
2022/06/22 01:16:35;;;;;;;8.43;5.03;;;11.20;89.80;;;;;;5024197;28;20025;-74
2022/06/22 01:19:22;;;;;;;11.68;4.55;;;11.10;89.30;;;;;;5025810;28;20380;-74
2022/06/22 01:22:03;;;;;;;10.82;4.95;;;11.00;88.70;;;;;;5014998;28;20060;-74
2022/06/22 01:24:59;;;;;;;7.18;4.55;;;11.00;88.40;;;;;;5030072;28;20061;-74
2022/06/22 01:27:31;;;;;;;7.65;4.97;;;10.90;89.00;;;;;;5027563;28;20431;-74
2022/06/22 01:30:00;;;;;;;8.88;5.07;;;10.80;89.20;;;;;;5025115;28;20162;-74
2022/06/22 01:32:35;;;;;;;7.75;5.15;;;10.80;89.40;;;;;;5028127;28;20035;-74
2022/06/22 01:35:09;;;;;;;8.13;5.05;;;10.60;89.30;;;;;;5015583;28;20045;-74
2022/06/22 01:37:34;;;;;;;8.68;5.40;;;10.60;89.20;;;;;;5018524;28;20465;-74
2022/06/22 01:40:12;;;;;;;10.85;5.63;;;10.60;89.30;;;;;;5020447;28;20056;-74
2022/06/22 01:43:00;;;;;;;8.70;6.00;;;10.50;89.80;;;;;;5016955;28;20227;-75
2022/06/22 01:45:42;;;;;;;10.02;5.65;;;10.50;90.10;;;;;;5022327;28;20453;-74
2022/06/22 01:48:13;;;;;;;9.70;6.13;;;10.40;90.00;;;;;;5031382;28;20091;-76
2022/06/22 01:50:48;;;;;;;8.65;5.72;;;10.40;90.50;;;;;;5020241;28;20037;-76
2022/06/22 01:53:34;;;;;;;12.25;5.05;;;10.30;90.20;;;;;;5015517;28;20038;-73
2022/06/22 01:56:03;;;;;;;7.70;5.35;;;10.20;90.10;;;;;;5027064;28;20033;-74
2022/06/22 01:58:38;;;;;;;12.27;6.60;;;10.20;90.00;;;;;;5017933;28;20038;-74
2022/06/22 02:01:14;;;;;;;12.07;6.20;;;10.20;90.30;;;;;;5016692;28;20038;-74
2022/06/22 02:03:50;;;;;;;9.95;5.72;;;10.20;90.90;;;;;;5015945;28;20069;-73
2022/06/22 02:09:18;;;;;;;9.07;6.05;;;10.10;91.10;;;;;;5020481;28;20128;-75
2022/06/22 02:12:18;;;;;;;9.70;6.15;;;10.10;91.00;;;;;;5024926;28;20036;-74
2022/06/22 02:14:44;;;;;;;10.98;6.10;;;10.00;90.30;;;;;;5019011;28;20072;-74
2022/06/22 02:17:12;;;;;;;12.68;5.65;;;9.90;90.60;;;;;;5029886;28;20044;-74
2022/06/22 02:19:40;;;;;;;11.13;6.47;;;9.90;90.70;;;;;;5028631;28;20077;-76
2022/06/22 02:22:11;;;;;;;11.23;6.20;;;9.80;91.00;;;;;;5027589;28;20171;-74
2022/06/22 02:24:44;;;;;;;12.23;5.80;;;9.80;91.10;;;;;;5030014;28;20468;-74
2022/06/22 02:27:23;;;;;;;9.27;6.03;;;9.80;91.10;;;;;;5014386;28;20045;-75
2022/06/22 02:29:53;;;;;;;11.38;6.20;;;9.70;91.10;;;;;;5023571;28;20124;-75
2022/06/22 02:32:22;;;;;;;10.65;6.85;;;9.70;91.30;;;;;;5015610;28;20383;-78
2022/06/22 02:34:50;;;;;;;14.20;7.13;;;9.70;91.80;;;;;;5042090;28;20104;-75
2022/06/22 02:37:18;;;;;;;11.90;7.40;;;9.70;91.80;;;;;;5025311;28;20045;-75
2022/06/22 02:39:48;;;;;;;10.85;7.32;;;9.70;91.70;;;;;;5021442;28;20033;-75
2022/06/22 02:44:59;;;;;;;14.48;7.93;;;9.70;92.30;;;;;;5022578;28;20056;-76
2022/06/22 02:47:29;;;;;;;12.27;7.75;;;9.70;92.50;;;;;;5020117;28;20384;-74
2022/06/22 02:50:41;;;;;;;12.77;7.70;;;9.60;92.40;;;;;;5034420;28;20017;-74
2022/06/22 02:53:30;;;;;;;12.90;6.40;;;9.50;91.80;;;;;;5022564;28;20158;-76
2022/06/22 02:55:56;;;;;;;13.48;6.82;;;9.50;91.90;;;;;;5033338;28;20107;-79
2022/06/22 02:58:28;;;;;;;9.70;6.38;;;9.40;92.00;;;;;;5039675;28;20039;-75
2022/06/22 03:00:55;;;;;;;14.27;7.80;;;9.40;92.00;;;;;;5024940;28;20025;-76
2022/06/22 03:03:21;;;;;;;12.10;8.10;;;9.40;91.90;;;;;;5028609;28;20112;-75
2022/06/22 03:05:50;;;;;;;17.60;9.13;;;9.50;92.50;;;;;;5027730;28;20436;-77
2022/06/22 03:08:18;;;;;;;14.90;9.98;;;9.40;92.30;;;;;;5027800;28;20037;-75
2022/06/22 03:10:54;;;;;;;14.55;9.85;;;9.40;92.40;;;;;;5019921;28;20116;-77
2022/06/22 03:13:28;;;;;;;17.90;10.25;;;9.40;92.40;;;;;;5013654;28;20033;-75
2022/06/22 03:15:54;;;;;;;11.90;9.32;;;9.30;92.30;;;;;;5019516;28;20033;-75
2022/06/22 03:18:24;;;;;;;18.10;10.40;;;9.40;92.40;;;;;;5016890;28;20034;-78
2022/06/22 03:21:01;;;;;;;16.30;10.55;;;9.40;92.40;;;;;;5031286;28;20107;-75
2022/06/22 03:23:48;;;;;;;17.23;9.50;;;9.30;92.30;;;;;;5032371;28;20053;-75
2022/06/22 03:26:22;;;;;;;15.20;9.02;;;9.40;92.20;;;;;;5020858;28;20083;-75
2022/06/22 03:28:55;;;;;;;16.42;10.05;;;9.40;92.20;;;;;;5031336;28;20033;-75
2022/06/22 03:31:47;;;;;;;18.67;10.20;;;9.50;92.70;;;;;;5028213;28;20026;-75
2022/06/22 03:34:20;;;;;;;13.77;9.00;;;9.50;92.50;;;;;;5028440;28;20044;-75
2022/06/22 03:37:01;;;;;;;13.38;8.43;;;9.40;91.90;;;;;;5028863;28;20416;-75
2022/06/22 03:39:31;;;;;;;14.52;8.70;;;9.40;92.00;;;;;;5020492;28;20041;-76
2022/06/22 03:42:04;;;;;;;14.67;8.37;;;9.30;91.90;;;;;;5014087;28;20040;-75
2022/06/22 03:44:47;;;;;;;13.60;8.82;;;9.30;91.80;;;;;;5021463;28;20493;-75
2022/06/22 03:47:21;;;;;;;13.20;9.25;;;9.40;91.80;;;;;;5018317;28;20100;-75
2022/06/22 03:49:54;;;;;;;12.63;8.15;;;9.40;91.70;;;;;;5020292;28;20112;-75
2022/06/22 03:52:42;;;;;;;15.93;8.57;;;9.40;92.00;;;;;;5015915;28;20030;-75
2022/06/22 03:55:14;;;;;;;14.63;9.35;;;9.40;91.60;;;;;;5023829;28;20038;-75
2022/06/22 03:57:43;;;;;;;22.50;9.52;;;9.40;92.00;;;;;;5030087;28;20112;-75
2022/06/22 04:00:11;;;;;;;16.73;9.88;;;9.40;92.10;;;;;;5022883;28;20099;-75
2022/06/22 04:02:36;;;;;;;18.00;10.88;;;9.40;92.00;;;;;;5029621;28;20030;-75
2022/06/22 04:05:04;;;;;;;21.73;11.25;;;9.50;92.10;;;;;;5021899;28;20554;-75
2022/06/22 04:07:37;;;;;;;18.55;10.57;;;9.50;92.10;;;;;;5022550;28;20033;-75
2022/06/22 04:10:05;;;;;;;19.27;11.05;;;9.60;92.20;;;;;;5020970;28;20064;-75
2022/06/22 04:12:45;;;;;;;20.45;11.68;;;9.60;92.10;;;;;;5025760;28;20036;-77
2022/06/22 04:15:31;;;;;;;17.20;12.02;;;9.60;92.30;;;;;;5027154;28;20037;-75
2022/06/22 04:18:01;;;;;;;22.73;12.38;;;9.70;92.60;;;;;;5034385;28;20051;-75
2022/06/22 04:20:52;;;;;;;26.52;15.48;;;9.80;93.10;;;;;;5037590;28;20041;-75
2022/06/22 04:23:48;;;;;;;32.42;17.92;;;10.00;93.90;;;;;;5027809;28;20264;-78
2022/06/22 04:26:29;;;;;;;36.65;18.70;;;10.30;94.50;;;;;;5032566;28;20108;-76
2022/06/22 04:29:01;;;;;;;;;;;10.40;94.80;;;;;;5020900;28;20210;-73
2022/06/22 04:31:32;;;;;;;33.63;17.52;;;10.50;95.00;;;;;;5019736;28;19916;-74
2022/06/22 04:34:16;;;;;;;34.08;19.35;;;10.60;95.00;;;;;;5027418;28;20123;-76
2022/06/22 04:36:50;;;;;;;32.42;18.35;;;10.60;94.90;;;;;;5023987;28;20117;-74
2022/06/22 04:39:23;;;;;;;36.05;18.30;;;10.70;94.90;;;;;;5019710;28;20565;-74
2022/06/22 04:41:49;;;;;;;32.03;18.67;;;10.80;95.00;;;;;;5019421;28;20128;-74
2022/06/22 04:44:22;;;;;;;31.90;18.83;;;10.80;94.70;;;;;;5022324;28;20052;-74
2022/06/22 04:46:51;;;;;;;28.30;17.13;;;10.90;94.70;;;;;;5019207;28;20037;-80
2022/06/22 04:49:37;;;;;;;29.40;17.27;;;10.90;94.60;;;;;;5025794;28;20084;-74
2022/06/22 04:52:08;;;;;;;28.35;16.52;;;11.00;94.50;;;;;;5022966;28;20029;-74
2022/06/22 04:54:40;;;;;;;28.15;16.40;;;11.00;94.40;;;;;;5018631;28;20087;-74
2022/06/22 04:57:25;;;;;;;30.40;16.58;;;11.20;94.60;;;;;;5017588;28;20028;-75
2022/06/22 04:59:51;;;;;;;28.63;16.35;;;11.20;94.40;;;;;;5019728;28;20038;-76
2022/06/22 05:02:20;;;;;;;28.13;16.17;;;11.30;94.40;;;;;;5023485;28;20408;-75
2022/06/22 05:04:51;;;;;;;33.08;16.92;;;11.50;94.50;;;;;;5011850;28;20125;-74
2022/06/22 05:07:38;;;;;;;32.35;16.83;;;11.50;94.20;;;;;;5023791;28;20356;-72
2022/06/22 05:10:21;;;;;;;28.90;15.35;;;11.70;94.10;;;;;;5023635;28;20436;-70
2022/06/22 05:12:57;;;;;;;21.20;13.95;;;11.60;93.70;;;;;;5025663;28;20033;-70
2022/06/22 05:15:33;;;;;;;27.00;14.63;;;11.70;93.50;;;;;;5035572;28;20061;-71
2022/06/22 05:18:01;;;;;;;22.55;13.60;;;11.80;93.50;;;;;;5031144;28;20060;-71
2022/06/22 05:20:40;;;;;;;18.30;13.00;;;11.90;93.50;;;;;;5031577;28;20059;-70
2022/06/22 05:23:07;;;;;;;21.40;13.15;;;12.10;93.30;;;;;;5029036;28;20040;-73
2022/06/22 05:25:33;;;;;;;18.35;12.38;;;12.10;93.10;;;;;;5029380;28;20384;-71
2022/06/22 05:28:10;;;;;;;17.45;12.55;;;12.20;92.90;;;;;;5025484;28;20035;-71
2022/06/22 05:30:40;;;;;;;16.35;12.57;;;12.30;92.50;;;;;;5030472;28;20064;-71
2022/06/22 05:33:12;;;;;;;19.00;12.52;;;12.40;92.40;;;;;;5039534;28;20048;-72
2022/06/22 05:35:42;;;;;;;20.05;12.32;;;12.50;92.40;;;;;;5024287;28;20163;-76
2022/06/22 05:38:10;;;;;;;19.08;12.02;;;12.60;92.40;;;;;;5020697;28;20033;-77
2022/06/22 05:40:37;;;;;;;17.70;12.73;;;12.80;92.10;;;;;;5026535;28;20476;-75
2022/06/22 05:43:05;;;;;;;23.23;12.85;;;13.00;92.20;;;;;;5025419;28;20046;-75
2022/06/22 05:45:37;;;;;;;21.67;12.90;;;13.10;91.90;;;;;;5032575;28;20039;-76
2022/06/22 05:48:04;;;;;;;22.80;12.80;;;13.30;91.70;;;;;;5014491;28;20033;-75
2022/06/22 05:50:59;;;;;;;19.92;12.40;;;13.50;90.90;;;;;;5024293;28;20052;-78
2022/06/22 05:54:07;;;;;;;19.27;12.77;;;13.50;90.00;;;;;;5025425;28;20108;-75
2022/06/22 05:56:39;;;;;;;15.73;10.40;;;13.70;89.90;;;;;;5025874;28;20060;-77
2022/06/22 05:59:15;;;;;;;17.83;10.63;;;13.80;89.70;;;;;;5028284;28;20377;-75
2022/06/22 06:02:02;;;;;;;16.38;10.45;;;14.00;90.10;;;;;;5030180;28;20167;-75
2022/06/22 06:04:47;;;;;;;16.40;10.15;;;14.10;89.00;;;;;;5029793;28;20129;-76
2022/06/22 06:07:31;;;;;;;14.40;9.07;;;14.20;88.30;;;;;;5018931;28;20064;-75
2022/06/22 06:09:57;;;;;;;15.77;9.82;;;14.30;87.20;;;;;;5032230;28;20044;-76
2022/06/22 06:12:33;;;;;;;14.60;8.10;;;14.50;86.50;;;;;;5027389;28;20457;-75
2022/06/22 06:15:02;;;;;;;15.63;7.43;;;14.50;85.20;;;;;;5029228;28;20114;-75
2022/06/22 06:17:34;;;;;;;9.95;6.88;;;14.60;85.10;;;;;;5030656;28;20087;-77
2022/06/22 06:20:01;;;;;;;10.63;6.82;;;14.80;84.30;;;;;;5030453;28;20061;-76
2022/06/22 06:22:30;;;;;;;12.10;5.95;;;14.90;84.00;;;;;;5022164;28;20033;-75
2022/06/22 06:27:46;;;;;;;10.02;5.60;;;15.20;83.50;;;;;;5029831;28;20103;-76
2022/06/22 06:30:34;;;;;;;10.40;5.63;;;15.30;82.10;;;;;;5025478;28;20037;-76
2022/06/22 06:33:16;;;;;;;9.63;4.65;;;15.40;82.00;;;;;;5031529;28;20025;-76
2022/06/22 06:35:53;;;;;;;9.00;4.65;;;15.50;81.40;;;;;;5023588;28;20444;-75
2022/06/22 06:38:33;;;;;;;9.45;4.93;;;15.70;80.20;;;;;;5019261;28;20032;-75
2022/06/22 06:41:15;;;;;;;8.18;4.68;;;15.90;80.70;;;;;;5021220;28;20060;-76
2022/06/22 06:44:09;;;;;;;8.25;4.25;;;16.10;81.20;;;;;;5017304;28;20183;-75
2022/06/22 06:46:38;;;;;;;15.32;5.43;;;16.30;79.60;;;;;;5022902;28;20095;-75
2022/06/22 06:49:25;;;;;;;7.78;4.22;;;16.40;79.30;;;;;;5026470;28;20038;-76
2022/06/22 06:51:57;;;;;;;13.60;5.20;;;16.50;78.50;;;;;;5021251;28;20356;-75
2022/06/22 06:54:28;;;;;;;7.78;4.22;;;16.50;77.40;;;;;;5024133;28;20034;-75
2022/06/22 06:57:34;;;;;;;9.27;4.22;;;16.70;76.70;;;;;;5027838;28;20022;-76
2022/06/22 07:00:03;;;;;;;9.95;5.07;;;16.80;76.90;;;;;;4984208;28;20061;-76
2022/06/22 07:02:35;;;;;;;7.50;4.03;;;16.80;76.50;;;;;;4979302;28;20034;-76
2022/06/22 07:05:05;;;;;;;10.80;4.63;;;16.60;75.50;;;;;;5006853;28;20051;-75
2022/06/22 07:07:48;;;;;;;11.77;4.43;;;17.00;76.00;;;;;;5024210;28;20037;-75
2022/06/22 07:10:20;;;;;;;10.35;4.30;;;17.20;76.10;;;;;;5025580;28;20036;-76
2022/06/22 07:12:59;;;;;;;7.75;4.32;;;17.50;74.20;;;;;;5017929;28;20144;-76
2022/06/22 07:15:33;;;;;;;9.30;4.18;;;17.50;74.60;;;;;;5020462;28;20021;-77
2022/06/22 07:18:03;;;;;;;10.30;4.43;;;17.70;72.80;;;;;;5016621;28;20030;-76
2022/06/22 07:20:35;;;;;;;10.00;4.22;;;17.80;74.00;;;;;;5021894;28;20034;-76
2022/06/22 07:23:06;;;;;;;12.63;4.93;;;17.90;73.70;;;;;;5024430;28;20519;-76
2022/06/22 07:25:45;;;;;;;7.55;4.28;;;18.00;72.40;;;;;;5017712;28;20065;-76
2022/06/22 07:28:28;;;;;;;11.57;4.63;;;18.30;71.90;;;;;;5026599;28;20038;-76
2022/06/22 07:31:21;;;;;;;7.00;3.55;;;18.40;70.50;;;;;;5025068;28;20342;-78
2022/06/22 07:34:01;;;;;;;10.27;4.35;;;18.50;69.00;;;;;;5018699;28;20416;-76
2022/06/22 07:36:38;;;;;;;11.75;4.15;;;18.70;69.10;;;;;;5020691;28;20037;-76
2022/06/22 07:39:18;;;;;;;7.60;3.38;;;18.80;69.30;;;;;;5018944;28;20065;-76
2022/06/22 07:41:44;;;;;;;9.60;4.17;;;18.90;66.20;;;;;;5019536;28;20036;-80
2022/06/22 07:44:17;;;;;;;10.27;3.55;;;19.00;67.50;;;;;;5015904;28;20053;-76
2022/06/22 07:47:09;;;;;;;8.30;3.55;;;19.10;66.70;;;;;;5022886;28;20060;-75
2022/06/22 07:49:46;;;;;;;6.18;3.88;;;19.20;65.30;;;;;;5014834;28;20069;-76
2022/06/22 07:52:20;;;;;;;6.90;3.95;;;19.50;66.00;;;;;;5029852;28;20464;-76
2022/06/22 07:54:51;;;;;;;9.07;3.33;;;19.40;65.40;;;;;;5027852;28;20083;-76
2022/06/22 07:57:40;;;;;;;7.50;3.40;;;19.60;67.10;;;;;;5032735;28;20034;-76
2022/06/22 08:00:17;;;;;;;6.38;3.30;;;19.90;66.00;;;;;;5031969;28;20100;-76
2022/06/22 08:03:20;;;;;;;6.80;3.40;;;19.80;62.60;;;;;;5030867;28;20048;-76
2022/06/22 08:05:49;;;;;;;6.75;2.90;;;19.90;64.80;;;;;;5031811;28;20427;-76
2022/06/22 08:08:21;;;;;;;5.90;3.08;;;19.90;62.60;;;;;;5022488;28;20060;-76
2022/06/22 08:10:53;;;;;;;10.52;3.03;;;20.00;62.60;;;;;;5017285;28;20088;-75
2022/06/22 08:13:25;;;;;;;7.70;2.65;;;20.00;61.70;;;;;;5030656;28;20092;-76
2022/06/22 08:15:59;;;;;;;6.55;2.95;;;20.20;62.70;;;;;;5030416;28;20435;-76
2022/06/22 08:18:26;;;;;;;6.68;3.22;;;20.60;62.60;;;;;;5028855;28;20049;-76
2022/06/22 08:20:54;;;;;;;10.68;3.50;;;20.80;61.80;;;;;;5029812;28;20029;-76
2022/06/22 08:23:26;;;;;;;7.32;3.10;;;20.70;60.80;;;;;;5030109;28;20132;-76
2022/06/22 08:25:52;;;;;;;7.03;2.75;;;20.60;60.10;;;;;;5024368;28;20041;-76
2022/06/22 08:28:21;;;;;;;6.40;3.00;;;21.00;60.00;;;;;;5024573;28;20037;-76
2022/06/22 08:30:49;;;;;;;9.10;3.42;;;20.80;58.80;;;;;;5024118;28;20353;-76
2022/06/22 08:33:20;;;;;;;9.45;3.53;;;20.60;59.70;;;;;;5033545;28;20048;-75
2022/06/22 08:35:55;;;;;;;6.30;3.38;;;20.80;60.70;;;;;;5028587;28;20080;-76
2022/06/22 08:38:34;;;;;;;6.80;3.38;;;21.00;60.40;;;;;;5023902;28;20044;-79
2022/06/22 08:41:33;;;;;;;8.20;3.65;;;21.10;58.00;;;;;;5025374;28;20111;-81
2022/06/22 08:44:15;;;;;;;7.25;3.17;;;20.80;58.20;;;;;;5027986;28;20471;-79
2022/06/22 08:46:49;;;;;;;8.52;3.28;;;21.00;57.80;;;;;;5022771;28;20710;-77
2022/06/22 08:49:26;;;;;;;8.63;3.58;;;21.50;58.60;;;;;;5019309;28;20449;-77
2022/06/22 08:52:30;;;;;;;7.85;3.13;;;21.50;56.00;;;;;;5027738;28;20034;-77
2022/06/22 08:55:03;;;;;;;5.63;2.58;;;21.70;57.30;;;;;;5018047;28;20104;-77
2022/06/22 08:57:43;;;;;;;5.43;2.45;;;21.80;56.00;;;;;;5025571;28;20025;-82
2022/06/22 09:00:42;;;;;;;9.27;2.83;;;21.90;56.90;;;;;;5030607;28;20083;-78
2022/06/22 09:03:36;;;;;;;6.03;2.70;;;21.70;54.70;;;;;;5019197;28;20028;-81
2022/06/22 09:06:25;;;;;;;4.35;1.98;;;22.00;55.70;;;;;;5025457;28;20115;-78
2022/06/22 09:09:09;;;;;;;7.80;2.67;;;22.10;53.90;;;;;;5026384;28;20413;-76
2022/06/22 09:12:05;;;;;;;9.57;2.50;;;21.70;53.60;;;;;;5026335;28;20487;-77
2022/06/22 09:14:51;;;;;;;6.30;3.08;;;22.20;53.30;;;;;;5023532;28;20037;-78
2022/06/22 09:17:23;;;;;;;7.43;3.15;;;22.20;54.30;;;;;;5027274;28;20065;-82
2022/06/22 09:20:21;;;;;;;7.28;3.25;;;21.90;54.00;;;;;;5035084;28;20039;-78
2022/06/22 09:22:49;;;;;;;6.93;2.83;;;22.00;54.10;;;;;;5037212;28;20029;-77
2022/06/22 09:25:25;;;;;;;8.85;2.83;;;22.40;53.40;;;;;;5024829;28;20143;-76
2022/06/22 09:28:00;;;;;;;7.72;2.30;;;22.50;52.20;;;;;;5019041;28;20168;-73
2022/06/22 09:30:50;;;;;;;6.03;1.90;;;22.70;51.00;;;;;;5027498;28;20138;-73
2022/06/22 09:33:32;;;;;;;4.75;2.20;;;23.20;52.50;;;;;;5024438;28;20081;-73
2022/06/22 09:36:23;;;;;;;6.32;2.72;;;23.60;51.20;;;;;;5025990;28;20373;-73
2022/06/22 09:38:57;;;;;;;6.07;2.45;;;23.80;50.60;;;;;;5020825;28;20352;-73
2022/06/22 09:41:53;;;;;;;7.57;2.45;;;23.70;48.30;;;;;;5025409;28;20140;-73
2022/06/22 09:44:40;;;;;;;6.75;2.88;;;24.10;48.90;;;;;;5028382;28;20076;-73
2022/06/22 09:47:35;;;;;;;6.38;2.50;;;23.50;50.20;;;;;;5014592;28;20097;-73
2022/06/22 09:50:12;;;;;;;6.38;2.42;;;23.00;50.80;;;;;;5021019;28;20041;-73
2022/06/22 09:52:58;;;;;;;7.35;2.65;;;23.10;52.20;;;;;;5024934;28;20259;-73
2022/06/22 09:58:48;;;;;;;5.13;2.20;;;23.60;46.90;;;;;;5018983;28;20087;-73
2022/06/22 10:01:30;;;;;;;3.97;2.28;;;23.80;49.30;;;;;;5018240;28;20507;-73
2022/06/22 10:04:28;;;;;;;8.23;2.85;;;24.40;48.20;;;;;;5022601;28;20038;-73
2022/06/22 10:07:13;;;;;;;5.80;2.85;;;24.60;46.40;;;;;;5019208;28;20219;-73
2022/06/22 10:09:53;;;;;;;5.88;2.28;;;24.00;48.40;;;;;;5022375;28;20036;-73
2022/06/22 10:12:35;;;;;;;6.43;2.72;;;23.50;50.10;;;;;;5022887;28;20038;-73
2022/06/22 10:15:07;;;;;;;7.47;2.47;;;23.70;49.10;;;;;;5022844;28;20033;-73
2022/06/22 10:17:57;;;;;;;9.50;3.13;;;23.90;48.40;;;;;;5019351;28;20029;-73
2022/06/22 10:20:35;;;;;;;4.88;2.70;;;24.20;48.10;;;;;;5025455;28;20498;-73
2022/06/22 10:23:29;;;;;;;11.15;2.80;;;23.90;48.40;;;;;;5011446;28;20049;-73
2022/06/22 10:26:03;;;;;;;4.60;2.63;;;24.40;45.40;;;;;;5031698;28;20424;-73
2022/06/22 10:28:32;;;;;;;7.05;3.60;;;24.60;45.20;;;;;;5024717;28;20392;-72
2022/06/22 10:31:26;;;;;;;5.68;3.33;;;24.40;44.80;;;;;;5031914;28;20089;-72
2022/06/22 10:34:11;;;;;;;7.25;3.40;;;24.40;47.80;;;;;;5024221;28;20127;-71
2022/06/22 10:37:27;;;;;;;6.82;3.08;;;24.50;45.50;;;;;;5016400;28;20128;-71
2022/06/22 10:47:04;;;;;;;8.30;3.17;;;25.60;43.10;;;;;;5020781;28;20052;-71
2022/06/22 10:50:09;;;;;;;6.80;3.25;;;25.50;44.10;;;;;;5019506;28;20025;-71
2022/06/22 10:53:03;;;;;;;4.53;2.40;;;25.70;43.50;;;;;;5004232;28;20132;-71
2022/06/22 10:55:55;;;;;;;7.28;2.80;;;26.30;42.50;;;;;;5019737;28;20075;-71
2022/06/22 10:58:38;;;;;;;8.82;3.22;;;26.30;41.70;;;;;;5019397;28;20076;-71
2022/06/22 11:01:27;;;;;;;6.93;3.75;;;25.70;42.60;;;;;;5019661;28;20531;-71
2022/06/22 11:04:07;;;;;;;7.13;4.15;;;25.70;42.70;;;;;;5015297;28;20379;-71
2022/06/22 11:06:58;;;;;;;10.00;3.67;;;25.50;44.20;;;;;;5021647;28;20029;-71
2022/06/22 11:09:26;;;;;;;7.28;3.38;;;25.40;44.00;;;;;;5025989;28;20186;-71
2022/06/22 11:11:54;;;;;;;6.82;3.45;;;25.60;43.60;;;;;;5027320;28;20037;-71
2022/06/22 11:14:48;;;;;;;7.55;3.45;;;25.90;44.30;;;;;;5016789;28;20406;-71
2022/06/22 11:17:39;;;;;;;5.75;3.00;;;26.10;42.00;;;;;;5022273;28;20116;-71
2022/06/22 11:20:33;;;;;;;8.75;3.75;;;25.30;43.50;;;;;;5027127;28;20433;-71
2022/06/22 11:23:07;;;;;;;5.57;2.88;;;25.40;42.40;;;;;;5014626;28;20034;-71
2022/06/22 11:32:26;;;;;;;6.93;3.17;;;26.90;41.30;;;;;;5025771;28;20468;-71
2022/06/22 11:35:06;;;;;;;8.88;3.15;;;26.90;40.50;;;;;;5024393;28;20045;-71
2022/06/22 11:38:02;;;;;;;10.30;3.20;;;27.00;40.50;;;;;;5014871;28;20033;-71
2022/06/22 11:41:01;;;;;;;5.25;2.50;;;27.10;39.60;;;;;;5027570;28;20026;-71
2022/06/22 11:43:39;;;;;;;8.73;2.67;;;27.40;39.00;;;;;;5029706;28;20049;-71
2022/06/22 11:46:13;;;;;;;6.38;3.17;;;27.20;39.00;;;;;;5019593;28;20171;-71
2022/06/22 11:48:57;;;;;;;10.55;3.50;;;27.00;38.50;;;;;;5025268;28;20030;-71
2022/06/22 11:52:08;;;;;;;6.85;3.17;;;27.30;40.00;;;;;;5020431;28;20093;-71
2022/06/22 11:54:51;;;;;;;7.55;2.40;;;28.00;37.30;;;;;;5026712;28;20045;-71
2022/06/22 11:57:38;;;;;;;8.85;3.03;;;28.60;38.30;;;;;;5022315;28;20045;-71
2022/06/22 12:00:11;;;;;;;7.32;2.38;;;28.70;38.10;;;;;;5029920;28;20038;-71
2022/06/22 12:02:59;;;;;;;4.97;2.40;;;29.20;34.90;;;;;;5031330;28;20105;-71
2022/06/22 12:05:48;;;;;;;4.80;2.20;;;29.10;37.80;;;;;;5023009;28;20490;-71
2022/06/22 12:08:22;;;;;;;6.45;2.60;;;29.40;37.50;;;;;;5021437;28;20471;-71
2022/06/22 12:10:58;;;;;;;8.20;2.13;;;29.30;36.00;;;;;;5030495;28;20335;-71
2022/06/22 12:17:07;;;;;;;9.43;3.10;;;28.40;35.10;;;;;;5024638;28;20114;-71
2022/06/22 12:19:43;;;;;;;6.45;2.72;;;28.70;33.90;;;;;;5013720;28;20432;-71
2022/06/22 12:22:46;;;;;;;8.20;3.00;;;28.20;36.00;;;;;;5023711;28;20511;-71
2022/06/22 12:25:23;;;;;;;6.55;3.30;;;28.00;36.00;;;;;;5016589;28;20112;-71
2022/06/22 12:28:10;;;;;;;6.88;3.35;;;27.40;35.70;;;;;;5027228;28;20349;-71
2022/06/22 12:30:52;;;;;;;7.60;2.70;;;27.70;35.50;;;;;;5020396;28;20132;-71
2022/06/22 12:33:28;;;;;;;6.15;2.50;;;28.20;35.60;;;;;;5031657;28;20048;-71
2022/06/22 12:36:21;;;;;;;5.40;2.50;;;28.60;33.90;;;;;;5023712;28;20715;-71
2022/06/22 12:39:10;;;;;;;7.40;2.50;;;28.50;34.20;;;;;;5026139;28;20045;-71
2022/06/22 12:42:00;;;;;;;4.90;2.33;;;29.00;32.50;;;;;;5013220;28;20111;-71
2022/06/22 12:44:39;;;;;;;;;;;28.40;32.60;;;;;;5011568;28;20046;-71
2022/06/22 12:47:25;;;;;;;4.60;2.17;;;28.40;33.40;;;;;;5029309;28;19909;-71
2022/06/22 12:50:06;;;;;;;6.50;1.90;;;29.30;33.40;;;;;;5020429;28;20033;-71
2022/06/22 12:52:47;;;;;;;3.53;2.00;;;29.40;33.00;;;;;;5020117;28;20108;-70
2022/06/22 12:55:27;;;;;;;5.05;2.30;;;29.00;32.20;;;;;;5017065;28;20044;-70
2022/06/22 12:57:59;;;;;;;;;;;29.20;34.10;;;;;;5026639;28;20068;-71
2022/06/22 13:00:25;;;;;;;6.13;3.03;;;29.00;34.30;;;;;;5026864;28;20336;-70
2022/06/22 13:02:57;;;;;;;7.97;2.55;;;29.10;33.60;;;;;;5027378;28;20117;-70
2022/06/22 13:05:27;;;;;;;7.22;2.55;;;29.10;32.80;;;;;;5030857;28;20029;-70
2022/06/22 13:07:57;;;;;;;8.68;2.72;;;29.50;32.10;;;;;;5029390;28;20312;-70
2022/06/22 13:10:26;;;;;;;6.60;2.22;;;29.70;32.50;;;;;;5030910;28;20049;-70
2022/06/22 13:13:03;;;;;;;7.65;2.15;;;30.00;32.20;;;;;;5020604;28;20108;-70
2022/06/22 13:15:41;;;;;;;3.80;1.77;;;30.70;31.90;;;;;;5016438;28;20045;-70
2022/06/22 13:18:32;;;;;;;4.22;2.10;;;30.40;30.80;;;;;;5016834;28;20033;-70
2022/06/22 13:21:31;;;;;;;4.35;2.10;;;30.80;29.80;;;;;;5019284;28;20029;-71
2022/06/22 13:24:13;;;;;;;7.47;2.30;;;30.70;33.40;;;;;;5019077;28;20041;-70
2022/06/22 13:27:15;;;;;;;6.15;2.30;;;30.40;31.00;;;;;;5030748;28;20079;-70
2022/06/22 13:30:17;;;;;;;5.78;2.20;;;30.20;31.40;;;;;;5027036;28;20036;-70
2022/06/22 13:32:54;;;;;;;5.68;2.20;;;30.60;32.50;;;;;;5023535;28;20488;-71
2022/06/22 13:35:31;;;;;;;3.15;1.45;;;30.50;30.80;;;;;;5028627;28;20034;-71
2022/06/22 13:38:18;;;;;;;4.03;1.70;;;30.90;30.50;;;;;;5028620;28;20099;-71
2022/06/22 13:40:57;;;;;;;6.18;1.98;;;30.80;30.50;;;;;;5019233;28;20389;-71
2022/06/22 13:43:37;;;;;;;6.63;2.15;;;30.90;34.40;;;;;;5014056;28;20052;-71
2022/06/22 13:46:27;;;;;;;5.97;1.90;;;31.40;30.10;;;;;;5018226;28;20029;-71
2022/06/22 13:49:37;;;;;;;6.95;1.65;;;31.50;30.70;;;;;;5012475;28;20030;-71
2022/06/22 13:52:40;;;;;;;6.90;2.10;;;31.70;30.80;;;;;;5016473;28;20492;-71
2022/06/22 13:55:19;;;;;;;2.63;1.58;;;31.10;30.90;;;;;;5018996;28;20180;-71
2022/06/22 13:57:56;;;;;;;5.95;1.88;;;31.50;29.80;;;;;;5023385;28;20041;-70
2022/06/22 14:00:30;;;;;;;5.40;1.70;;;31.70;30.20;;;;;;5025578;28;20041;-70
2022/06/22 14:03:13;;;;;;;5.20;1.92;;;31.50;30.00;;;;;;5029577;28;20452;-70
2022/06/22 14:05:51;;;;;;;5.90;1.65;;;31.00;30.10;;;;;;5021726;28;20510;-70
2022/06/22 14:08:35;;;;;;;4.72;1.77;;;29.90;31.90;;;;;;5034145;28;20038;-71
2022/06/22 14:11:35;;;;;;;4.78;1.88;;;30.40;32.40;;;;;;5014842;28;20052;-70